createdAt,value
2022-11-16T00:00:29.321Z,12.10
2022-11-16T00:02:56.101Z,12.10
2022-11-16T00:05:27.144Z,12.10
2022-11-16T00:07:55.182Z,12.10
2022-11-16T00:10:21.888Z,12.10
2022-11-16T00:12:48.559Z,12.10
2022-11-16T00:15:15.317Z,12.10
2022-11-16T00:17:42.019Z,12.10
2022-11-16T00:20:09.386Z,12.10
2022-11-16T00:22:36.072Z,12.10
2022-11-16T00:25:02.757Z,12.10
2022-11-16T00:27:29.494Z,12.10
2022-11-16T00:29:56.308Z,12.20
2022-11-16T00:32:23.593Z,12.20
2022-11-16T00:34:50.355Z,12.20
2022-11-16T00:37:17.022Z,12.20
2022-11-16T00:39:43.701Z,12.20
2022-11-16T00:42:10.411Z,12.20
2022-11-16T00:44:37.230Z,12.20
2022-11-16T00:47:03.974Z,12.20
2022-11-16T00:49:30.711Z,12.20
2022-11-16T00:51:57.399Z,12.20
2022-11-16T00:54:24.149Z,12.20
2022-11-16T00:56:50.870Z,12.20
2022-11-16T00:59:17.607Z,12.20
2022-11-16T01:01:44.459Z,12.20
2022-11-16T01:04:11.250Z,12.20
2022-11-16T01:06:37.958Z,12.20
2022-11-16T01:09:04.667Z,12.20
2022-11-16T01:11:49.900Z,12.20
2022-11-16T01:14:16.684Z,12.20
2022-11-16T01:16:43.392Z,12.20
2022-11-16T01:19:10.453Z,12.20
2022-11-16T01:21:37.245Z,12.20
2022-11-16T01:24:04.054Z,12.20
2022-11-16T01:26:30.842Z,12.20
2022-11-16T01:28:59.033Z,12.20
2022-11-16T01:31:25.751Z,12.30
2022-11-16T01:33:52.430Z,12.20
2022-11-16T01:36:19.164Z,12.20
2022-11-16T01:38:47.100Z,12.30
2022-11-16T01:41:24.937Z,12.20
2022-11-16T01:43:57.393Z,12.30
2022-11-16T01:46:25.352Z,12.20
2022-11-16T01:48:59.205Z,12.30
2022-11-16T01:51:27.067Z,12.30
2022-11-16T01:53:54.076Z,12.10
2022-11-16T01:56:21.842Z,12.20
2022-11-16T01:58:49.591Z,12.20
2022-11-16T02:01:16.324Z,12.20
2022-11-16T02:03:43.109Z,12.20
2022-11-16T02:06:12.601Z,12.20
2022-11-16T02:09:09.949Z,12.20
2022-11-16T02:11:58.437Z,12.20
2022-11-16T02:14:49.352Z,12.20
2022-11-16T02:17:26.147Z,12.20
2022-11-16T02:20:30.221Z,12.10
2022-11-16T02:23:15.518Z,12.20
2022-11-16T02:26:03.596Z,12.20
2022-11-16T02:29:01.123Z,12.10
2022-11-16T02:31:38.207Z,12.20
2022-11-16T02:34:09.831Z,12.10
2022-11-16T02:36:40.144Z,12.10
2022-11-16T02:39:12.382Z,12.10
2022-11-16T02:41:42.641Z,12.10
2022-11-16T02:44:24.566Z,12.20
2022-11-16T02:46:56.978Z,12.10
2022-11-16T02:49:25.657Z,12.20
2022-11-16T02:51:54.380Z,12.20
2022-11-16T02:54:24.554Z,12.20
2022-11-16T02:57:03.207Z,12.20
2022-11-16T02:59:47.630Z,12.20
2022-11-16T03:02:20.132Z,12.20
2022-11-16T03:05:02.339Z,12.20
2022-11-16T03:07:34.931Z,12.20
2022-11-16T03:10:02.475Z,12.20
2022-11-16T03:12:35.071Z,12.20
2022-11-16T03:15:04.977Z,12.20
2022-11-16T03:17:38.524Z,12.20
2022-11-16T03:20:14.785Z,12.20
2022-11-16T03:22:42.663Z,12.20
2022-11-16T03:25:11.875Z,12.20
2022-11-16T03:28:13.741Z,12.20
2022-11-16T03:30:49.255Z,12.20
2022-11-16T03:33:31.063Z,12.20
2022-11-16T03:36:13.045Z,12.20
2022-11-16T03:38:45.566Z,12.20
2022-11-16T03:41:15.426Z,12.20
2022-11-16T03:43:43.794Z,12.20
2022-11-16T03:46:10.765Z,12.20
2022-11-16T03:48:39.905Z,12.20
2022-11-16T03:51:08.927Z,12.20
2022-11-16T03:53:35.837Z,12.10
2022-11-16T03:56:03.109Z,12.10
2022-11-16T03:58:30.075Z,12.20
2022-11-16T04:00:57.015Z,12.10
2022-11-16T04:03:23.822Z,12.10
2022-11-16T04:06:09.212Z,12.10
2022-11-16T04:08:54.664Z,12.20
2022-11-16T04:11:41.271Z,12.20
2022-11-16T04:14:32.275Z,12.10
2022-11-16T04:17:17.799Z,12.20
2022-11-16T04:20:03.389Z,12.10
2022-11-16T04:22:52.845Z,12.20
2022-11-16T04:25:24.581Z,12.20
2022-11-16T04:28:11.431Z,12.20
2022-11-16T04:30:57.012Z,12.20
2022-11-16T04:33:42.531Z,12.20
2022-11-16T04:36:28.038Z,12.20
2022-11-16T04:38:54.730Z,12.20
2022-11-16T04:41:40.257Z,12.10
2022-11-16T04:44:07.054Z,12.20
2022-11-16T04:46:52.256Z,12.20
2022-11-16T04:49:19.077Z,12.20
2022-11-16T04:51:45.812Z,12.20
2022-11-16T04:54:12.619Z,12.20
2022-11-16T04:56:39.294Z,12.20
2022-11-16T04:59:06.122Z,12.20
2022-11-16T05:01:51.413Z,12.20
2022-11-16T05:04:18.111Z,12.20
2022-11-16T05:06:44.838Z,12.20
2022-11-16T05:09:11.537Z,12.20
2022-11-16T05:11:38.250Z,12.20
2022-11-16T05:14:05.914Z,12.20
2022-11-16T05:16:33.687Z,12.20
2022-11-16T05:19:19.064Z,12.20
2022-11-16T05:21:45.945Z,12.10
2022-11-16T05:24:31.415Z,12.10
2022-11-16T05:26:58.085Z,12.00
2022-11-16T05:29:24.744Z,12.00
2022-11-16T05:31:51.481Z,12.00
2022-11-16T05:34:18.160Z,12.00
2022-11-16T05:36:44.830Z,12.00
2022-11-16T05:39:12.114Z,11.90
2022-11-16T05:41:38.830Z,11.90
2022-11-16T05:44:05.691Z,11.90
2022-11-16T05:46:32.453Z,11.80
2022-11-16T05:48:59.366Z,11.80
2022-11-16T05:51:26.202Z,11.80
2022-11-16T05:53:52.921Z,11.80
2022-11-16T05:56:19.837Z,11.70
2022-11-16T05:58:46.742Z,11.70
2022-11-16T06:01:13.458Z,11.70
2022-11-16T06:03:40.337Z,11.70
2022-11-16T06:06:07.415Z,11.70
2022-11-16T06:08:34.558Z,11.70
2022-11-16T06:11:03.175Z,11.60
2022-11-16T06:13:30.891Z,11.60
2022-11-16T06:15:58.022Z,11.60
2022-11-16T06:18:25.085Z,11.50
2022-11-16T06:20:51.795Z,11.60
2022-11-16T06:23:18.587Z,11.60
2022-11-16T06:25:45.811Z,11.50
2022-11-16T06:28:12.648Z,11.50
2022-11-16T06:30:40.635Z,11.50
2022-11-16T06:33:08.673Z,11.50
2022-11-16T06:35:35.389Z,11.50
2022-11-16T06:38:02.056Z,11.50
2022-11-16T06:40:28.747Z,11.50
2022-11-16T06:42:57.204Z,11.40
2022-11-16T06:45:24.070Z,11.40
2022-11-16T06:47:50.803Z,11.40
2022-11-16T06:50:19.287Z,11.30
2022-11-16T06:52:47.161Z,11.30
2022-11-16T06:55:14.259Z,11.30
2022-11-16T06:57:41.149Z,11.30
2022-11-16T07:00:08.857Z,11.20
2022-11-16T07:02:39.682Z,11.20
2022-11-16T07:05:07.450Z,11.20
2022-11-16T07:07:34.235Z,11.20
2022-11-16T07:10:02.548Z,11.20
2022-11-16T07:12:29.246Z,11.20
2022-11-16T07:14:55.956Z,11.20
2022-11-16T07:17:22.637Z,11.10
2022-11-16T07:19:49.464Z,11.10
2022-11-16T07:22:16.180Z,11.10
2022-11-16T07:24:42.874Z,11.10
2022-11-16T07:27:09.546Z,11.00
2022-11-16T07:29:36.211Z,11.00
2022-11-16T07:32:02.934Z,11.00
2022-11-16T07:34:29.619Z,11.00
2022-11-16T07:36:56.670Z,10.90
2022-11-16T07:39:23.372Z,10.90
2022-11-16T07:41:53.020Z,10.90
2022-11-16T07:44:20.331Z,10.80
2022-11-16T07:46:48.356Z,10.80
2022-11-16T07:49:17.040Z,10.80
2022-11-16T07:51:44.471Z,10.80
2022-11-16T07:54:15.335Z,10.80
2022-11-16T07:56:42.404Z,10.80
2022-11-16T07:59:09.188Z,10.70
2022-11-16T08:01:36.244Z,10.70
2022-11-16T08:04:03.243Z,10.60
2022-11-16T08:06:31.942Z,10.70
2022-11-16T08:08:59.559Z,10.60
2022-11-16T08:11:26.779Z,10.60
2022-11-16T08:13:53.524Z,10.60
2022-11-16T08:16:22.239Z,10.60
2022-11-16T08:18:49.561Z,10.60
2022-11-16T08:21:17.692Z,10.60
2022-11-16T08:23:47.726Z,10.60
2022-11-16T08:26:17.434Z,10.60
2022-11-16T08:28:45.889Z,10.70
2022-11-16T08:31:18.292Z,10.70
2022-11-16T08:33:45.546Z,10.80
2022-11-16T08:36:17.163Z,10.90
2022-11-16T08:38:45.548Z,10.90
2022-11-16T08:41:12.610Z,11.00
2022-11-16T08:43:40.530Z,11.00
2022-11-16T08:46:09.243Z,11.00
2022-11-16T08:48:37.429Z,11.00
2022-11-16T08:51:17.473Z,11.10
2022-11-16T08:53:45.145Z,11.10
2022-11-16T08:56:13.693Z,11.10
2022-11-16T08:58:43.625Z,11.10
2022-11-16T09:01:13.966Z,11.10
2022-11-16T09:03:41.832Z,11.10
2022-11-16T09:06:10.183Z,11.20
2022-11-16T09:08:38.778Z,11.20
2022-11-16T09:11:16.885Z,11.10
2022-11-16T09:13:45.428Z,11.20
2022-11-16T09:16:12.475Z,11.20
2022-11-16T09:18:39.238Z,11.20
2022-11-16T09:21:05.998Z,11.20
2022-11-16T09:23:32.694Z,11.20
2022-11-16T09:26:04.809Z,11.30
2022-11-16T09:28:31.985Z,11.30
2022-11-16T09:31:06.057Z,11.30
2022-11-16T09:33:34.205Z,11.30
2022-11-16T09:36:09.400Z,11.40
2022-11-16T09:39:13.933Z,11.30
2022-11-16T09:42:01.698Z,11.40
2022-11-16T09:44:56.512Z,11.30
2022-11-16T09:47:37.918Z,11.30
2022-11-16T09:50:06.623Z,11.40
2022-11-16T09:52:44.534Z,11.40
2022-11-16T09:55:36.969Z,11.30
2022-11-16T09:58:12.811Z,11.30
2022-11-16T10:00:44.931Z,11.30
2022-11-16T10:03:13.674Z,11.20
2022-11-16T10:06:02.733Z,11.20
2022-11-16T10:08:46.128Z,11.20
2022-11-16T10:11:38.597Z,11.30
2022-11-16T10:14:24.171Z,11.30
2022-11-16T10:16:57.391Z,11.30
2022-11-16T10:19:53.544Z,11.30
2022-11-16T10:22:36.017Z,11.40
2022-11-16T10:25:11.774Z,11.40
2022-11-16T10:27:59.358Z,11.50
2022-11-16T10:30:26.348Z,11.50
2022-11-16T10:32:55.066Z,11.60
2022-11-16T10:35:33.795Z,11.60
2022-11-16T10:38:03.879Z,11.60
2022-11-16T10:40:38.064Z,11.70
2022-11-16T10:43:10.328Z,11.80
2022-11-16T10:45:43.389Z,11.70
2022-11-16T10:48:31.421Z,11.80
2022-11-16T10:50:58.362Z,11.90
2022-11-16T10:53:28.108Z,11.80
2022-11-16T10:56:12.498Z,11.80
2022-11-16T10:58:58.666Z,11.80
2022-11-16T11:01:36.435Z,11.70
2022-11-16T11:04:22.938Z,11.70
2022-11-16T11:06:52.837Z,11.70
2022-11-16T11:09:32.725Z,11.70
2022-11-16T11:12:37.750Z,11.70
2022-11-16T11:15:27.499Z,11.70
2022-11-16T11:18:17.179Z,11.70
2022-11-16T11:20:52.277Z,11.80
2022-11-16T11:23:24.516Z,11.80
2022-11-16T11:25:53.943Z,11.80
2022-11-16T11:28:38.438Z,11.80
2022-11-16T11:31:11.647Z,11.90
2022-11-16T11:33:44.040Z,11.90
2022-11-16T11:36:19.546Z,12.00
2022-11-16T11:39:00.199Z,12.00
2022-11-16T11:41:33.364Z,12.00
2022-11-16T11:44:03.354Z,12.00
2022-11-16T11:47:18.198Z,12.00
2022-11-16T11:49:36.197Z,12.00
2022-11-16T11:52:17.276Z,12.00
2022-11-16T11:54:49.298Z,12.10
2022-11-16T11:57:23.049Z,12.10
2022-11-16T11:59:52.949Z,12.10
2022-11-16T12:02:48.273Z,12.20
2022-11-16T12:05:22.084Z,12.20
2022-11-16T12:08:07.664Z,12.30
2022-11-16T12:10:51.123Z,12.30
2022-11-16T12:13:51.047Z,12.40
2022-11-16T12:16:49.333Z,12.40
2022-11-16T12:19:37.509Z,12.30
2022-11-16T12:22:22.943Z,12.30
2022-11-16T12:24:52.631Z,12.30
2022-11-16T12:27:34.275Z,12.30
2022-11-16T12:30:11.875Z,12.30
2022-11-16T12:33:00.135Z,12.30
2022-11-16T12:35:41.572Z,12.20
2022-11-16T12:38:14.627Z,12.20
2022-11-16T12:41:15.124Z,12.20
2022-11-16T12:43:59.676Z,12.20
2022-11-16T12:46:57.072Z,12.10
2022-11-16T12:49:45.333Z,12.10
2022-11-16T12:52:51.870Z,12.10
2022-11-16T12:55:27.466Z,12.10
2022-11-16T12:58:00.843Z,12.10
2022-11-16T13:00:31.441Z,12.00
2022-11-16T13:03:33.694Z,12.00
2022-11-16T13:06:06.120Z,12.00
2022-11-16T13:08:53.217Z,12.00
2022-11-16T13:11:27.651Z,12.00
2022-11-16T13:14:02.473Z,12.10
2022-11-16T13:16:29.566Z,12.20
2022-11-16T13:18:58.067Z,12.20
2022-11-16T13:21:30.784Z,12.30
2022-11-16T13:24:17.273Z,12.30
2022-11-16T13:27:16.262Z,12.40
2022-11-16T13:30:12.592Z,12.50
2022-11-16T13:33:00.963Z,12.50
2022-11-16T13:35:28.028Z,12.50
2022-11-16T13:37:54.947Z,12.50
2022-11-16T13:40:27.627Z,12.50
2022-11-16T13:43:09.648Z,12.40
2022-11-16T13:45:48.480Z,12.30
2022-11-16T13:48:30.815Z,12.30
2022-11-16T13:51:00.460Z,12.30
2022-11-16T13:56:28.929Z,12.20
2022-11-16T13:58:58.320Z,12.20
2022-11-16T14:01:26.730Z,12.20
2022-11-16T14:04:31.787Z,12.20
2022-11-16T14:07:00.298Z,12.20
2022-11-16T14:09:48.138Z,12.20
2022-11-16T14:12:51.594Z,12.20
2022-11-16T14:15:27.367Z,12.20
2022-11-16T14:18:23.340Z,12.20
2022-11-16T14:20:59.276Z,12.20
2022-11-16T14:23:53.759Z,12.20
2022-11-16T14:26:34.016Z,12.10
2022-11-16T14:29:20.212Z,12.10
2022-11-16T14:31:57.031Z,12.00
2022-11-16T14:34:26.343Z,12.00
2022-11-16T14:36:53.657Z,11.90
2022-11-16T14:39:37.648Z,11.90
2022-11-16T14:42:15.408Z,11.80
2022-11-16T14:44:43.249Z,11.80
2022-11-16T14:47:27.630Z,11.80
2022-11-16T14:49:55.591Z,11.70
2022-11-16T14:52:45.171Z,11.80
2022-11-16T14:55:20.177Z,11.80
2022-11-16T14:57:47.287Z,11.80
2022-11-16T15:00:29.612Z,11.90
2022-11-16T15:03:02.375Z,12.00
2022-11-16T15:05:34.823Z,12.00
2022-11-16T15:08:03.604Z,12.00
2022-11-16T15:10:30.734Z,12.00
2022-11-16T15:12:58.197Z,12.00
2022-11-16T15:15:28.822Z,12.00
2022-11-16T15:18:11.428Z,11.90
2022-11-16T15:20:47.299Z,11.90
2022-11-16T15:23:15.243Z,11.80
2022-11-16T15:25:45.039Z,11.80
2022-11-16T15:28:29.668Z,11.80
2022-11-16T15:31:00.142Z,11.80
2022-11-16T15:33:39.226Z,11.70
2022-11-16T15:36:24.625Z,11.60
2022-11-16T15:38:58.788Z,11.60
2022-11-16T15:41:28.107Z,11.60
2022-11-16T15:44:15.621Z,11.50
2022-11-16T15:46:46.543Z,11.40
2022-11-16T15:49:30.492Z,11.40
2022-11-16T15:51:58.772Z,11.30
2022-11-16T15:54:51.488Z,11.30
2022-11-16T15:57:20.215Z,11.20
2022-11-16T15:59:50.585Z,11.20
2022-11-16T16:02:28.754Z,11.20
2022-11-16T16:04:55.634Z,11.20
2022-11-16T16:07:40.209Z,11.20
2022-11-16T16:10:22.069Z,11.20
2022-11-16T16:13:00.424Z,11.20
2022-11-16T16:15:40.168Z,11.10
2022-11-16T16:18:39.769Z,11.10
2022-11-16T16:21:06.656Z,11.10
2022-11-16T16:23:33.666Z,11.10
2022-11-16T16:26:03.987Z,11.10
2022-11-16T16:28:30.820Z,11.10
2022-11-16T16:30:57.638Z,11.10
2022-11-16T16:33:28.607Z,11.10
2022-11-16T16:35:55.535Z,11.10
2022-11-16T16:38:22.305Z,11.00
2022-11-16T16:40:49.052Z,11.00
2022-11-16T16:43:15.913Z,11.00
2022-11-16T16:45:43.920Z,11.00
2022-11-16T16:48:13.962Z,10.90
2022-11-16T16:50:40.975Z,10.70
2022-11-16T16:53:12.238Z,10.80
2022-11-16T16:55:39.367Z,10.80
2022-11-16T16:58:06.278Z,10.70
2022-11-16T17:00:33.755Z,10.60
2022-11-16T17:03:00.603Z,10.60
2022-11-16T17:05:27.446Z,10.60
2022-11-16T17:07:57.248Z,10.90
2022-11-16T17:10:24.330Z,10.80
2022-11-16T17:12:54.802Z,10.70
2022-11-16T17:15:22.088Z,10.60
2022-11-16T17:17:49.104Z,10.60
2022-11-16T17:20:16.512Z,10.50
2022-11-16T17:22:43.785Z,10.50
2022-11-16T17:25:10.723Z,10.40
2022-11-16T17:27:43.632Z,10.40
2022-11-16T17:30:13.647Z,10.40
2022-11-16T17:32:40.526Z,10.40
2022-11-16T17:35:07.603Z,10.30
2022-11-16T17:37:34.430Z,10.30
2022-11-16T17:40:01.205Z,10.30
2022-11-16T17:42:27.951Z,10.20
2022-11-16T17:44:55.252Z,10.20
2022-11-16T17:47:21.976Z,10.20
2022-11-16T17:49:48.740Z,10.20
2022-11-16T17:52:15.711Z,10.10
2022-11-16T17:54:42.555Z,10.10
2022-11-16T17:57:09.498Z,10.10
2022-11-16T17:59:36.326Z,10.10
2022-11-16T18:02:03.310Z,10.10
2022-11-16T18:04:30.117Z,10.10
2022-11-16T18:06:57.151Z,10.10
2022-11-16T18:09:24.230Z,10.10
2022-11-16T18:11:51.183Z,10.10
2022-11-16T18:14:17.975Z,10.10
2022-11-16T18:16:47.783Z,10.20
2022-11-16T18:19:17.110Z,10.20
2022-11-16T18:21:44.344Z,10.30
2022-11-16T18:24:11.914Z,10.30
2022-11-16T18:26:40.287Z,10.30
2022-11-16T18:29:12.320Z,10.30
2022-11-16T18:31:41.702Z,10.40
2022-11-16T18:34:08.573Z,10.30
2022-11-16T18:36:35.635Z,10.40
2022-11-16T18:39:02.426Z,10.40
2022-11-16T18:41:30.264Z,10.30
2022-11-16T18:43:59.350Z,10.30
2022-11-16T18:46:31.434Z,10.20
2022-11-16T18:49:00.059Z,10.20
2022-11-16T18:51:28.188Z,10.10
2022-11-16T18:53:56.030Z,10.10
2022-11-16T18:56:24.083Z,10.10
2022-11-16T18:58:52.642Z,10.10
2022-11-16T19:01:22.816Z,10.00
2022-11-16T19:03:51.147Z,10.30
2022-11-16T19:06:18.288Z,10.40
2022-11-16T19:08:50.472Z,10.40
2022-11-16T19:11:19.122Z,10.30
2022-11-16T19:13:46.018Z,10.30
2022-11-16T19:16:13.846Z,10.30
2022-11-16T19:18:41.018Z,10.30
2022-11-16T19:21:15.665Z,10.30
2022-11-16T19:23:46.965Z,10.40
2022-11-16T19:26:15.384Z,10.40
2022-11-16T19:28:47.227Z,10.40
2022-11-16T19:31:28.965Z,10.50
2022-11-16T19:33:59.588Z,10.50
2022-11-16T19:36:28.169Z,10.50
2022-11-16T19:38:55.659Z,10.50
2022-11-16T19:41:23.619Z,10.60
2022-11-16T19:43:52.800Z,10.60
2022-11-16T19:46:21.715Z,10.60
2022-11-16T19:48:49.583Z,10.60
2022-11-16T19:51:20.408Z,10.70
2022-11-16T19:53:47.658Z,10.70
2022-11-16T19:56:16.548Z,10.70
2022-11-16T19:58:43.808Z,10.70
2022-11-16T20:01:12.687Z,10.70
2022-11-16T20:03:42.726Z,10.80
2022-11-16T20:06:24.101Z,10.70
2022-11-16T20:08:56.056Z,10.80
2022-11-16T20:11:24.877Z,10.70
2022-11-16T20:13:53.692Z,10.80
2022-11-16T20:16:22.885Z,10.70
2022-11-16T20:18:50.730Z,10.80
2022-11-16T20:21:28.918Z,10.80
2022-11-16T20:24:01.512Z,10.80
2022-11-16T20:26:37.359Z,10.80
2022-11-16T20:29:05.125Z,10.80
2022-11-16T20:31:41.548Z,10.80
2022-11-16T20:34:14.091Z,10.80
2022-11-16T20:36:52.768Z,10.80
2022-11-16T20:39:24.038Z,10.80
2022-11-16T20:41:50.902Z,10.80
2022-11-16T20:44:21.129Z,10.80
2022-11-16T20:46:48.979Z,10.80
2022-11-16T20:49:15.777Z,10.80
2022-11-16T20:51:42.567Z,10.80
2022-11-16T20:54:09.267Z,10.80
2022-11-16T20:56:36.044Z,10.80
2022-11-16T20:59:02.798Z,10.80
2022-11-16T21:01:31.830Z,10.80
2022-11-16T21:04:04.159Z,10.70
2022-11-16T21:06:34.838Z,10.80
2022-11-16T21:09:01.939Z,10.70
2022-11-16T21:11:30.714Z,10.80
2022-11-16T21:14:15.990Z,10.80
2022-11-16T21:16:42.818Z,10.70
2022-11-16T21:19:10.373Z,10.70
2022-11-16T21:21:38.576Z,10.70
2022-11-16T21:24:05.539Z,10.70
2022-11-16T21:26:33.258Z,10.70
2022-11-16T21:29:01.223Z,10.70
2022-11-16T21:31:31.212Z,10.70
2022-11-16T21:34:00.495Z,10.60
2022-11-16T21:36:29.114Z,10.60
2022-11-16T21:38:56.044Z,10.60
2022-11-16T21:41:24.490Z,10.60
2022-11-16T21:43:51.418Z,10.60
2022-11-16T21:46:25.076Z,10.60
2022-11-16T21:48:52.887Z,10.70
2022-11-16T21:51:21.651Z,10.70
2022-11-16T21:53:48.880Z,10.70
2022-11-16T21:56:18.778Z,10.80
2022-11-16T21:58:45.914Z,10.80
2022-11-16T22:01:15.930Z,10.90
2022-11-16T22:03:43.256Z,10.90
2022-11-16T22:06:32.322Z,10.90
2022-11-16T22:08:59.826Z,10.90
2022-11-16T22:11:26.848Z,11.00
2022-11-16T22:13:53.495Z,11.00
2022-11-16T22:16:23.348Z,11.00
2022-11-16T22:18:50.460Z,11.00
2022-11-16T22:21:17.522Z,11.00
2022-11-16T22:23:44.416Z,11.10
2022-11-16T22:26:13.396Z,11.10
2022-11-16T22:28:40.482Z,11.10
2022-11-16T22:31:12.478Z,11.10
2022-11-16T22:33:39.728Z,11.10
2022-11-16T22:36:09.341Z,11.10
2022-11-16T22:38:37.488Z,11.10
2022-11-16T22:41:04.390Z,11.10
2022-11-16T22:43:32.579Z,11.10
2022-11-16T22:46:04.655Z,11.10
2022-11-16T22:48:41.174Z,11.10
2022-11-16T22:51:18.154Z,11.10
2022-11-16T22:53:44.962Z,11.10
2022-11-16T22:56:11.972Z,11.10
2022-11-16T22:58:39.778Z,11.10
2022-11-16T23:01:08.106Z,11.10
2022-11-16T23:03:36.085Z,11.10
2022-11-16T23:06:04.074Z,11.10
2022-11-16T23:08:30.966Z,11.10
2022-11-16T23:11:24.041Z,11.10
2022-11-16T23:14:10.538Z,11.10
2022-11-16T23:16:38.716Z,11.10
2022-11-16T23:19:29.052Z,11.10
2022-11-16T23:22:14.943Z,11.10
2022-11-16T23:25:00.427Z,11.10
2022-11-16T23:27:52.043Z,11.10
2022-11-16T23:30:18.935Z,11.10
2022-11-16T23:32:45.840Z,11.00
2022-11-16T23:35:13.130Z,11.00
2022-11-16T23:38:00.008Z,10.90
2022-11-16T23:40:35.194Z,10.90
2022-11-16T23:43:23.560Z,10.90
2022-11-16T23:45:50.816Z,10.90
2022-11-16T23:48:18.581Z,10.90
2022-11-16T23:50:45.922Z,10.80
2022-11-16T23:53:13.077Z,10.90
2022-11-16T23:55:40.771Z,10.80
2022-11-16T23:58:13.940Z,10.80
